Time;durP1;ratioP1;P1;durP2;ratioP2;P2;SDS_P1;SDS_P2;PMS_P1;PMS_P2;Temp;Humidity;BMP_temperature;BMP_pressure;BME280_temperature;BME280_humidity;BME280_pressure;Samples;Min_cycle;Max_cycle;Signal;HPM_P1;HPM_P2
2021/04/06 00:01:43;;;;;;;6.13;2.15;;;;;;;-0.77;100.00;100512.16;6246632;28;20518;-71
2021/04/06 00:04:54;;;;;;;3.30;0.70;;;;;;;-0.75;100.00;100506.97;6246905;28;20103;-70
2021/04/06 00:07:58;;;;;;;1.75;0.80;;;;;;;-0.68;100.00;100512.91;6247269;28;20057;-69
2021/04/06 00:11:02;;;;;;;2.40;1.55;;;;;;;-0.53;100.00;100510.16;6246699;28;20083;-69
2021/04/06 00:14:05;;;;;;;1.00;0.40;;;;;;;-0.75;100.00;100506.13;6246916;28;20061;-70
2021/04/06 00:17:09;;;;;;;2.53;0.47;;;;;;;-0.82;100.00;100500.16;6246727;28;20048;-70
2021/04/06 00:20:12;;;;;;;1.45;0.52;;;;;;;-0.82;100.00;100508.78;6246758;28;20087;-69
2021/04/06 00:23:14;;;;;;;4.15;0.70;;;;;;;-0.80;100.00;100511.34;6246265;28;20041;-69
2021/04/06 00:26:15;;;;;;;2.88;0.73;;;;;;;-0.81;100.00;100509.63;6246773;28;20060;-69
2021/04/06 00:29:18;;;;;;;1.55;0.73;;;;;;;-0.86;100.00;100507.09;6246460;28;20441;-69
2021/04/06 00:32:23;;;;;;;2.20;0.63;;;;;;;-0.84;100.00;100507.91;6245762;28;20052;-70
2021/04/06 00:35:26;;;;;;;3.63;0.65;;;;;;;-0.84;100.00;100505.34;6244476;28;20502;-71
2021/04/06 00:38:31;;;;;;;4.05;0.57;;;;;;;-0.85;100.00;100515.69;6246315;28;20422;-70
2021/04/06 00:41:33;;;;;;;0.88;0.45;;;;;;;-0.78;100.00;100533.66;6246347;28;20065;-71
2021/04/06 00:44:38;;;;;;;1.75;0.40;;;;;;;-0.94;100.00;100526.94;6246551;28;20501;-71
2021/04/06 00:47:41;;;;;;;3.40;0.50;;;;;;;-0.90;100.00;100525.19;6246677;28;20065;-69
2021/04/06 00:51:05;;;;;;;4.20;0.80;;;;;;;-0.97;100.00;100526.97;6246240;28;20046;-69
2021/04/06 00:54:07;;;;;;;3.22;0.70;;;;;;;-0.98;100.00;100532.16;6245732;28;20476;-69
2021/04/06 00:57:08;;;;;;;0.57;0.30;;;;;;;-0.95;100.00;100535.56;6246622;28;20512;-69
2021/04/06 01:00:15;;;;;;;1.58;0.50;;;;;;;-0.88;100.00;100539.78;6246189;28;20045;-69
2021/04/06 01:03:17;;;;;;;2.53;0.45;;;;;;;-0.95;100.00;100548.47;6246119;28;20568;-69
2021/04/06 01:06:18;;;;;;;2.03;0.52;;;;;;;-0.99;100.00;100548.50;6246133;28;20082;-69
2021/04/06 01:09:27;;;;;;;2.40;0.65;;;;;;;-1.21;100.00;100548.69;6249850;28;20046;-69
2021/04/06 01:12:29;;;;;;;;;;;;;;;-1.15;100.00;100548.63;6251210;28;20053;-70
2021/04/06 01:15:33;;;;;;;2.17;0.52;;;;;;;-1.37;100.00;100552.25;6250997;28;19928;-69
2021/04/06 01:18:34;;;;;;;3.45;0.90;;;;;;;-1.37;100.00;100557.41;6250867;28;20045;-69
2021/04/06 01:21:35;;;;;;;7.47;1.85;;;;;;;-1.33;100.00;100551.34;6250457;28;20053;-70
2021/04/06 01:24:39;;;;;;;2.45;1.38;;;;;;;-1.39;100.00;100565.16;6250697;28;20080;-70
2021/04/06 01:27:40;;;;;;;4.55;1.70;;;;;;;-1.42;100.00;100564.31;6250441;28;20056;-69
2021/04/06 01:30:45;;;;;;;6.90;2.60;;;;;;;-1.41;100.00;100574.63;6250617;28;20494;-69
2021/04/06 01:33:46;;;;;;;5.03;2.40;;;;;;;-1.17;100.00;100570.16;6250350;28;20053;-69
2021/04/06 01:36:48;;;;;;;5.65;2.67;;;;;;;-1.29;100.00;100573.66;6250654;28;20050;-71
2021/04/06 01:39:53;;;;;;;5.20;2.63;;;;;;;-1.32;100.00;100563.38;6250178;28;20053;-70
2021/04/06 01:42:54;;;;;;;10.50;2.65;;;;;;;-1.22;100.00;100569.34;6250252;28;20057;-70
2021/04/06 01:45:57;;;;;;;7.22;2.60;;;;;;;-1.14;100.00;100570.94;6250133;28;20511;-69
2021/04/06 01:48:59;;;;;;;4.78;2.30;;;;;;;-1.33;100.00;100570.25;6250051;28;20410;-70
2021/04/06 01:52:01;;;;;;;5.18;2.55;;;;;;;-1.00;100.00;100562.25;6249613;28;20509;-70
2021/04/06 01:55:10;;;;;;;5.93;2.40;;;;;;;-1.16;100.00;100569.28;6249821;28;20053;-70
2021/04/06 01:58:13;;;;;;;7.00;3.70;;;;;;;-1.28;100.00;100567.63;6249960;28;20046;-70
2021/04/06 02:01:19;;;;;;;9.88;3.83;;;;;;;-1.15;100.00;100568.41;6266002;22;20502;-78
2021/04/06 02:04:21;;;;;;;6.97;3.50;;;;;;;-1.04;100.00;100570.03;6261398;28;20045;-78
2021/04/06 02:07:25;;;;;;;7.72;3.83;;;;;;;-1.19;100.00;100569.28;6274338;28;20048;-78
2021/04/06 02:10:26;;;;;;;6.32;3.55;;;;;;;-1.09;100.00;100571.78;6274066;28;20045;-78
2021/04/06 02:13:27;;;;;;;7.65;4.45;;;;;;;-1.26;100.00;100567.63;6274164;28;20644;-78
2021/04/06 02:16:42;;;;;;;6.57;4.13;;;;;;;-1.26;100.00;100565.91;6266232;28;20054;-78
2021/04/06 02:19:43;;;;;;;7.68;4.25;;;;;;;-1.03;100.00;100565.72;6249053;28;20407;-78
2021/04/06 02:22:53;;;;;;;8.02;4.05;;;;;;;-1.07;100.00;100556.31;6240672;28;20041;-78
2021/04/06 02:25:56;;;;;;;12.85;5.63;;;;;;;-0.99;100.00;100561.41;6249395;28;20060;-78
2021/04/06 02:28:57;;;;;;;9.13;5.18;;;;;;;-1.18;100.00;100560.69;6249093;28;20050;-76
2021/04/06 02:31:58;;;;;;;16.40;7.20;;;;;;;-1.00;100.00;100567.41;6248830;28;20056;-78
2021/04/06 02:35:03;;;;;;;11.68;7.35;;;;;;;-1.07;100.00;100566.63;6249136;28;20132;-78
2021/04/06 02:38:04;;;;;;;21.02;9.05;;;;;;;-1.18;100.00;100565.84;6249125;28;20046;-77
2021/04/06 02:41:11;;;;;;;16.52;9.88;;;;;;;-1.17;100.00;100560.69;6248386;28;20103;-76
2021/04/06 02:44:17;;;;;;;20.88;10.10;;;;;;;-1.11;100.00;100562.34;6240695;28;20049;-76
2021/04/06 02:47:18;;;;;;;17.15;9.00;;;;;;;-1.11;100.00;100583.81;6248799;28;20050;-76
2021/04/06 02:50:22;;;;;;;18.25;9.23;;;;;;;-1.08;100.00;100581.22;6248770;28;20121;-79
2021/04/06 02:53:23;;;;;;;18.80;9.45;;;;;;;-1.08;100.00;100576.06;6248552;28;20490;-75
2021/04/06 02:56:32;;;;;;;21.40;9.63;;;;;;;-0.87;100.00;100577.59;6248562;28;20061;-75
2021/04/06 02:59:39;;;;;;;15.23;7.75;;;;;;;-0.86;100.00;100584.47;6248199;28;20112;-76
2021/04/06 03:02:40;;;;;;;12.98;6.30;;;;;;;-1.04;100.00;100588.06;6248617;28;20067;-77
2021/04/06 03:05:41;;;;;;;10.40;5.28;;;;;;;-0.86;100.00;100583.63;6247846;28;20493;-77
2021/04/06 03:08:42;;;;;;;9.55;4.55;;;;;;;-0.94;100.00;100577.69;6240199;28;20049;-76
2021/04/06 03:11:46;;;;;;;13.07;4.78;;;;;;;-0.98;100.00;100582.00;6239571;28;20047;-76
2021/04/06 03:14:48;;;;;;;14.05;4.38;;;;;;;-1.02;100.00;100575.16;6244571;28;20053;-77
2021/04/06 03:17:52;;;;;;;9.40;3.70;;;;;;;-0.86;100.00;100579.31;6235093;28;20433;-76
2021/04/06 03:21:01;;;;;;;6.75;3.33;;;;;;;-1.02;100.00;100582.91;6247540;28;20045;-76
2021/04/06 03:24:04;;;;;;;7.88;3.65;;;;;;;-0.94;100.00;100588.00;6239418;28;20527;-77
2021/04/06 03:27:08;;;;;;;7.88;4.05;;;;;;;-0.92;100.00;100581.94;6247864;28;20494;-76
2021/04/06 03:30:10;;;;;;;7.55;3.40;;;;;;;-0.85;100.00;100575.88;6247278;28;20057;-77
2021/04/06 03:33:14;;;;;;;9.73;4.05;;;;;;;-0.96;100.00;100581.97;6247381;28;20045;-77
2021/04/06 03:36:20;;;;;;;8.15;3.80;;;;;;;-0.83;100.00;100570.69;6247808;28;20056;-76
2021/04/06 03:39:21;;;;;;;12.27;4.10;;;;;;;-0.73;100.00;100569.72;6247347;28;20053;-76
2021/04/06 03:42:25;;;;;;;10.30;3.78;;;;;;;-0.84;100.00;100559.50;6247302;28;20045;-77
2021/04/06 03:45:26;;;;;;;9.50;3.33;;;;;;;-0.77;100.00;100565.47;6247332;28;20068;-77
2021/04/06 03:48:28;;;;;;;9.02;3.30;;;;;;;-0.79;100.00;100564.63;6247619;28;20046;-76
2021/04/06 03:51:30;;;;;;;12.43;3.78;;;;;;;-0.75;100.00;100562.88;6246823;28;20045;-76
2021/04/06 03:54:37;;;;;;;12.45;3.13;;;;;;;-0.52;100.00;100555.75;6247360;28;20084;-75
2021/04/06 03:57:45;;;;;;;10.43;3.70;;;;;;;-0.65;100.00;100556.75;6247330;28;20127;-76
2021/04/06 04:00:46;;;;;;;8.05;3.08;;;;;;;-0.55;100.00;100561.78;6246756;28;20076;-75
2021/04/06 04:03:47;;;;;;;11.18;3.70;;;;;;;-0.53;100.00;100554.91;6246997;28;20053;-78
2021/04/06 04:06:48;;;;;;;10.23;3.42;;;;;;;-0.45;100.00;100553.97;6246857;28;20042;-76
2021/04/06 04:09:49;;;;;;;17.00;3.83;;;;;;;-0.54;100.00;100553.19;6246970;28;20107;-76
2021/04/06 04:12:51;;;;;;;10.77;4.15;;;;;;;-0.54;100.00;100558.34;6246514;28;20054;-75
2021/04/06 04:15:52;;;;;;;12.55;3.40;;;;;;;-0.29;100.00;100561.50;6246922;28;20057;-75
2021/04/06 04:18:53;;;;;;;7.63;3.13;;;;;;;-0.41;100.00;100561.66;6246719;28;20049;-76
2021/04/06 04:21:54;;;;;;;15.88;3.92;;;;;;;-0.46;100.00;100571.16;6246482;28;20095;-76
2021/04/06 04:24:55;;;;;;;11.93;3.83;;;;;;;-0.56;100.00;100569.56;6246779;28;20053;-76
2021/04/06 04:27:57;;;;;;;9.70;3.50;;;;;;;-0.53;100.00;100577.28;6246834;28;20077;-76
2021/04/06 04:30:59;;;;;;;13.68;4.57;;;;;;;-0.46;100.00;100566.00;6246322;28;20107;-76
2021/04/06 04:34:00;;;;;;;11.60;4.45;;;;;;;-0.38;100.00;100574.50;6246329;28;20410;-76
2021/04/06 04:37:01;;;;;;;10.38;4.10;;;;;;;-0.30;100.00;100566.69;6246555;28;20065;-75
2021/04/06 04:40:03;;;;;;;7.65;4.05;;;;;;;-0.46;100.00;100572.88;6246106;28;20041;-75
2021/04/06 04:43:05;;;;;;;11.15;3.92;;;;;;;-0.29;100.00;100564.06;6247918;28;20052;-75
2021/04/06 04:46:06;;;;;;;7.22;3.38;;;;;;;-0.39;100.00;100564.22;6251500;28;20045;-75
2021/04/06 04:49:07;;;;;;;11.32;4.90;;;;;;;-0.36;100.00;100567.63;6251646;28;20080;-75
2021/04/06 04:52:07;;;;;;;13.73;4.80;;;;;;;-0.41;100.00;100564.25;6251028;28;20466;-75
2021/04/06 04:55:10;;;;;;;9.43;4.00;;;;;;;-0.46;100.00;100565.13;6251363;28;20107;-76
2021/04/06 04:58:12;;;;;;;9.02;3.10;;;;;;;-0.31;100.00;100562.41;6251267;28;20049;-75
2021/04/06 05:01:12;;;;;;;10.20;3.53;;;;;;;-0.49;100.00;100570.34;6250911;28;20053;-76
2021/04/06 05:04:13;;;;;;;9.15;3.53;;;;;;;-0.45;100.00;100564.28;6251196;28;20445;-76
2021/04/06 05:07:14;;;;;;;8.75;3.50;;;;;;;-0.26;100.00;100558.03;6249397;28;20084;-75
2021/04/06 05:10:17;;;;;;;7.80;3.50;;;;;;;-0.39;100.00;100571.94;6250772;28;20414;-75
2021/04/06 05:13:19;;;;;;;10.70;3.83;;;;;;;-0.46;100.00;100572.88;6249619;28;20502;-76
2021/04/06 05:16:20;;;;;;;11.00;4.10;;;;;;;-0.31;100.00;100573.56;6250688;28;20091;-76
2021/04/06 05:19:20;;;;;;;9.80;3.65;;;;;;;-0.35;100.00;100578.78;6250318;28;20053;-75
2021/04/06 05:22:21;;;;;;;9.73;4.03;;;;;;;-0.42;100.00;100584.88;6250143;28;20429;-76
2021/04/06 05:25:22;;;;;;;12.93;5.07;;;;;;;-0.46;100.00;100588.38;6250327;28;20433;-76
2021/04/06 05:28:24;;;;;;;11.32;6.10;;;;;;;-0.43;100.00;100586.63;6250667;28;20045;-77
2021/04/06 05:31:25;;;;;;;14.18;6.25;;;;;;;-0.38;100.00;100594.31;6249408;28;20053;-76
2021/04/06 05:34:26;;;;;;;9.05;5.18;;;;;;;-0.47;100.00;100591.81;6249964;28;20053;-79
2021/04/06 05:37:26;;;;;;;9.60;3.88;;;;;;;-0.36;100.00;100590.00;6250296;28;20586;-76
2021/04/06 05:40:27;;;;;;;9.85;2.83;;;;;;;-0.47;100.00;100595.25;6248732;28;20146;-78
2021/04/06 05:43:31;;;;;;;8.70;2.60;;;;;;;-0.30;100.00;100595.94;6250245;28;20518;-78
2021/04/06 05:46:37;;;;;;;7.82;3.10;;;;;;;-0.36;100.00;100598.59;6249923;28;20068;-78
2021/04/06 05:49:38;;;;;;;4.20;2.28;;;;;;;-0.30;100.00;100598.53;6249532;28;20061;-77
2021/04/06 05:52:39;;;;;;;6.18;1.80;;;;;;;-0.44;100.00;100605.56;6249250;28;20060;-77
2021/04/06 05:55:40;;;;;;;8.68;2.22;;;;;;;-0.39;100.00;100601.19;6249444;28;20046;-77
2021/04/06 05:58:42;;;;;;;9.85;3.50;;;;;;;-0.38;100.00;100608.06;6249867;28;20046;-75
2021/04/06 06:01:44;;;;;;;6.40;3.38;;;;;;;-0.44;100.00;100615.03;6249430;28;20045;-75
2021/04/06 06:04:45;;;;;;;8.95;3.92;;;;;;;-0.27;100.00;100605.38;6249844;28;20046;-75
2021/04/06 06:07:46;;;;;;;9.77;2.92;;;;;;;-0.30;100.00;100614.00;6253737;28;20123;-75
2021/04/06 06:10:59;;;;;;;17.02;3.55;;;;;;;-0.26;100.00;100615.69;6273524;28;20052;-73
2021/04/06 06:14:01;;;;;;;17.85;3.55;;;;;;;-0.34;100.00;100614.91;6274188;28;20049;-76
2021/04/06 06:17:13;;;;;;;18.27;5.00;;;;;;;-0.34;100.00;100617.50;6274205;28;20421;-78
2021/04/06 06:20:16;;;;;;;11.93;4.55;;;;;;;-0.20;100.00;100619.91;6273866;28;20048;-77
2021/04/06 06:23:18;;;;;;;20.15;4.53;;;;;;;-0.17;100.00;100612.16;6274022;28;20099;-77
2021/04/06 06:26:19;;;;;;;9.10;3.97;;;;;;;-0.27;100.00;100616.56;6274040;28;20147;-77
2021/04/06 06:29:27;;;;;;;18.85;4.60;;;;;;;-0.04;100.00;100612.88;6273962;28;20049;-76
2021/04/06 06:32:28;;;;;;;20.63;5.00;;;;;;;-0.14;100.00;100604.34;6273618;28;20057;-77
2021/04/06 06:35:35;;;;;;;18.27;4.53;;;;;;;-0.03;100.00;100611.97;6274077;28;20120;-77
2021/04/06 06:38:38;;;;;;;19.85;5.00;;;;;;;0.20;100.00;100624.63;6273744;28;20084;-77
2021/04/06 06:41:39;;;;;;;19.02;5.53;;;;;;;0.11;100.00;100616.97;6273568;28;20098;-76
2021/04/06 06:44:41;;;;;;;21.73;5.25;;;;;;;0.16;100.00;100628.97;6273632;28;20128;-77
2021/04/06 06:47:53;;;;;;;12.13;4.28;;;;;;;0.09;100.00;100631.63;6273616;28;20118;-76
2021/04/06 06:50:55;;;;;;;19.75;3.63;;;;;;;0.11;100.00;100630.75;6268383;28;20042;-77
2021/04/06 06:53:57;;;;;;;15.95;3.65;;;;;;;0.19;100.00;100646.16;6247262;28;20049;-76
2021/04/06 06:57:07;;;;;;;21.30;3.92;;;;;;;0.18;100.00;100629.81;6247422;28;20701;-77
2021/04/06 07:00:13;;;;;;;14.90;4.57;;;;;;;0.32;100.00;100623.56;6248308;28;20053;-77
2021/04/06 07:03:15;;;;;;;14.35;3.60;;;;;;;0.28;100.00;100619.34;6248254;28;20049;-77
2021/04/06 07:06:22;;;;;;;10.68;3.38;;;;;;;0.22;100.00;100605.63;6247441;28;20569;-77
2021/04/06 07:09:25;;;;;;;18.42;4.50;;;;;;;0.34;100.00;100601.16;6248070;28;20072;-76
2021/04/06 07:12:26;;;;;;;10.05;2.90;;;;;;;0.18;100.00;100622.06;6248116;28;20084;-77
2021/04/06 07:15:29;;;;;;;23.77;5.60;;;;;;;0.16;100.00;100600.53;6248015;28;20414;-77
2021/04/06 07:18:30;;;;;;;15.10;2.72;;;;;;;0.25;100.00;100604.72;6247831;28;20525;-76
2021/04/06 07:21:31;;;;;;;17.58;3.78;;;;;;;0.29;100.00;100596.06;6247739;28;20084;-76
2021/04/06 07:24:35;;;;;;;18.92;2.55;;;;;;;0.28;100.00;100609.03;6247920;28;20509;-76
2021/04/06 07:27:36;;;;;;;16.52;2.50;;;;;;;0.24;100.00;100609.03;6248019;28;20046;-76
2021/04/06 07:30:38;;;;;;;7.03;2.05;;;;;;;0.41;100.00;100607.94;6247562;28;20053;-76
2021/04/06 07:33:39;;;;;;;15.63;2.42;;;;;;;0.39;99.18;100605.38;6247681;28;20057;-76
2021/04/06 07:36:41;;;;;;;9.25;1.88;;;;;;;0.43;99.98;100603.63;6247506;28;20049;-77
2021/04/06 07:39:42;;;;;;;16.92;2.78;;;;;;;0.55;97.78;100606.03;6247670;28;20046;-76
2021/04/06 07:42:45;;;;;;;8.43;1.98;;;;;;;0.62;98.17;100611.97;6247079;28;20117;-76
2021/04/06 07:45:47;;;;;;;8.13;1.60;;;;;;;0.41;97.56;100618.28;6247562;28;20141;-77
2021/04/06 07:48:49;;;;;;;15.05;2.35;;;;;;;0.49;96.48;100612.13;6247455;28;20049;-76
2021/04/06 07:51:52;;;;;;;12.73;2.50;;;;;;;0.55;97.96;100602.59;6246782;28;20067;-75
2021/04/06 07:54:54;;;;;;;14.80;2.88;;;;;;;0.68;97.39;100610.16;6247184;28;20053;-76
2021/04/06 07:57:55;;;;;;;11.68;2.40;;;;;;;0.67;97.83;100610.16;6247039;28;20057;-75
2021/04/06 08:01:06;;;;;;;17.98;3.72;;;;;;;0.58;97.46;100616.31;6268848;23;20053;-71
2021/04/06 08:04:07;;;;;;;10.02;2.88;;;;;;;0.76;97.59;100623.81;6246794;28;20099;-71
2021/04/06 08:07:24;;;;;;;17.55;3.55;;;;;;;0.74;96.32;100616.97;6270038;28;20607;-70
2021/04/06 08:10:35;;;;;;;14.15;2.92;;;;;;;0.68;96.73;100622.22;6256208;28;20050;-70
2021/04/06 08:13:36;;;;;;;14.30;3.10;;;;;;;0.73;96.21;100626.47;6246698;28;20480;-70
2021/04/06 08:16:38;;;;;;;13.98;2.33;;;;;;;0.68;96.48;100615.34;6248881;28;20049;-70
2021/04/06 08:19:48;;;;;;;11.20;3.10;;;;;;;0.76;95.27;100631.56;6270957;28;20050;-71
2021/04/06 08:22:55;;;;;;;12.93;2.53;;;;;;;0.94;94.76;100625.25;6270988;28;20095;-70
2021/04/06 08:25:56;;;;;;;12.80;2.15;;;;;;;0.96;95.79;100609.72;6271327;28;20132;-70
2021/04/06 08:29:27;;;;;;;16.52;2.88;;;;;;;1.11;93.97;100616.38;6270920;28;20051;-71
2021/04/06 08:32:29;;;;;;;13.65;3.08;;;;;;;1.59;92.69;100618.97;6270576;28;20045;-71
2021/04/06 08:36:03;;;;;;;15.73;2.50;;;;;;;1.72;91.01;100626.47;6269992;28;20552;-71
2021/04/06 08:39:04;;;;;;;14.63;3.20;;;;;;;1.88;90.50;100626.19;6270678;28;20045;-71
2021/04/06 08:42:07;;;;;;;22.35;2.80;;;;;;;1.69;89.28;100613.59;6269468;28;20421;-72
2021/04/06 08:45:09;;;;;;;21.92;2.42;;;;;;;1.66;89.40;100615.41;6270787;28;20516;-72
2021/04/06 08:48:11;;;;;;;20.10;3.20;;;;;;;1.56;90.89;100619.03;6271202;28;20079;-72
2021/04/06 08:51:20;;;;;;;10.65;2.03;;;;;;;1.21;91.93;100612.75;6270312;28;20052;-72
2021/04/06 08:54:24;;;;;;;10.68;1.95;;;;;;;1.34;92.47;100623.75;6270849;28;20634;-72
2021/04/06 08:57:25;;;;;;;10.10;2.67;;;;;;;1.26;92.70;100629.06;6267083;28;20512;-72
2021/04/06 09:00:27;;;;;;;15.90;2.40;;;;;;;1.18;93.43;100625.72;6256144;28;20045;-73
2021/04/06 09:03:29;;;;;;;16.48;2.72;;;;;;;1.17;93.69;100631.78;6260966;28;20044;-72
2021/04/06 09:06:30;;;;;;;16.05;2.85;;;;;;;1.24;93.45;100623.91;6270835;28;20056;-71
2021/04/06 09:09:31;;;;;;;27.85;2.38;;;;;;;1.62;92.03;100631.88;6270458;28;20128;-72
2021/04/06 09:12:33;;;;;;;11.95;3.10;;;;;;;1.72;89.83;100623.88;6261543;28;20053;-72
2021/04/06 09:15:35;;;;;;;8.98;2.40;;;;;;;1.85;89.17;100627.09;6270139;28;20149;-72
2021/04/06 09:18:38;;;;;;;16.15;3.42;;;;;;;1.85;89.50;100616.75;6270729;28;20049;-72
2021/04/06 09:21:41;;;;;;;13.45;3.13;;;;;;;1.82;88.76;100619.41;6268065;28;20045;-73
2021/04/06 09:24:43;;;;;;;19.92;2.47;;;;;;;1.95;88.72;100612.22;6260595;28;20109;-74
2021/04/06 09:27:50;;;;;;;10.38;1.88;;;;;;;1.90;87.19;100620.09;6270200;28;20055;-71
2021/04/06 09:30:51;;;;;;;11.15;2.17;;;;;;;1.85;88.05;100606.38;6272852;28;20096;-72
2021/04/06 09:34:01;;;;;;;11.60;1.80;;;;;;;2.15;86.02;100604.91;6273543;28;20049;-72
2021/04/06 09:37:06;;;;;;;18.33;2.45;;;;;;;2.18;83.88;100623.00;6274783;28;20476;-71
2021/04/06 09:40:08;;;;;;;6.70;2.03;;;;;;;2.17;84.29;100605.72;6274706;28;20053;-71
2021/04/06 09:43:09;;;;;;;12.23;1.92;;;;;;;2.26;84.47;100604.66;6274178;28;20048;-71
2021/04/06 09:46:10;;;;;;;11.80;2.58;;;;;;;2.61;84.23;100609.09;6274829;28;20494;-72
2021/04/06 09:49:13;;;;;;;13.70;2.50;;;;;;;2.10;86.30;100608.50;6274613;28;20084;-71
2021/04/06 09:52:15;;;;;;;13.93;1.80;;;;;;;1.91;89.36;100603.69;6273957;28;20053;-72
2021/04/06 09:55:17;;;;;;;15.70;3.03;;;;;;;1.80;90.29;100605.63;6274301;28;20151;-73
2021/04/06 09:58:18;;;;;;;15.90;2.10;;;;;;;2.08;88.42;100595.53;6274550;28;20055;-73
2021/04/06 10:01:21;;;;;;;13.05;3.25;;;;;;;2.03;87.34;100587.84;6273337;28;20052;-73
2021/04/06 10:04:39;;;;;;;12.18;2.22;;;;;;;2.17;84.31;100587.56;6274361;28;20045;-72
2021/04/06 10:07:45;;;;;;;12.70;1.70;;;;;;;2.26;81.60;100574.41;6272051;28;20056;-72
2021/04/06 10:10:49;;;;;;;7.03;1.92;;;;;;;2.56;82.61;100569.44;6274231;28;20064;-72
2021/04/06 10:13:51;;;;;;;10.07;1.98;;;;;;;2.61;79.96;100562.38;6260690;28;20053;-72
2021/04/06 10:16:56;;;;;;;15.25;2.78;;;;;;;2.71;78.28;100560.41;6269144;28;20046;-71
2021/04/06 10:20:01;;;;;;;11.48;2.17;;;;;;;2.82;78.48;100560.16;6263702;28;20041;-72
2021/04/06 10:23:02;;;;;;;6.72;1.75;;;;;;;3.08;77.27;100543.94;6265569;28;20425;-72
2021/04/06 10:26:03;;;;;;;15.25;2.85;;;;;;;3.13;75.59;100532.53;6272129;28;20055;-72
2021/04/06 10:29:09;;;;;;;13.85;2.50;;;;;;;3.13;73.97;100534.28;6272074;28;20497;-75
2021/04/06 10:32:29;;;;;;;13.30;3.80;;;;;;;3.48;73.50;100529.00;6266282;28;20056;-71
2021/04/06 10:35:33;;;;;;;11.68;2.38;;;;;;;3.48;75.83;100528.16;6266005;28;20052;-71
2021/04/06 10:38:37;;;;;;;11.73;2.15;;;;;;;3.04;80.13;100558.72;6273307;28;20045;-73
2021/04/06 10:41:38;;;;;;;11.77;1.73;;;;;;;2.13;86.36;100565.19;6262783;28;20049;-73
2021/04/06 10:44:41;;;;;;;5.90;2.58;;;;;;;1.94;88.94;100576.84;6273343;28;20102;-71
2021/04/06 10:47:42;;;;;;;10.10;1.67;;;;;;;1.71;92.69;100570.38;6273091;28;20049;-72
2021/04/06 10:50:45;;;;;;;19.10;2.17;;;;;;;1.33;91.54;100555.59;6272582;28;20199;-73
2021/04/06 10:53:48;;;;;;;7.13;1.38;;;;;;;1.48;93.01;100550.13;6273163;28;20049;-72
2021/04/06 10:56:51;;;;;;;7.85;1.40;;;;;;;1.55;91.14;100548.28;6273160;28;20045;-72
2021/04/06 10:59:52;;;;;;;14.20;2.30;;;;;;;1.68;88.94;100548.84;6273175;28;20049;-72
2021/04/06 11:03:12;;;;;;;8.80;1.70;;;;;;;1.88;89.86;100535.53;6271805;28;20045;-72
2021/04/06 11:06:17;;;;;;;14.40;2.20;;;;;;;2.23;90.67;100550.31;6271687;28;20079;-72
2021/04/06 11:09:21;;;;;;;5.72;1.65;;;;;;;2.22;88.49;100536.47;6271474;28;20047;-72
2021/04/06 11:12:22;;;;;;;11.65;2.10;;;;;;;2.19;90.14;100551.25;6272875;28;20056;-72
2021/04/06 11:15:23;;;;;;;10.55;2.17;;;;;;;2.52;91.40;100544.44;6272943;28;20261;-72
2021/04/06 11:18:23;;;;;;;7.97;2.03;;;;;;;2.77;89.17;100544.69;6273055;28;20064;-72
2021/04/06 11:21:26;;;;;;;9.45;1.67;;;;;;;2.60;88.34;100539.09;6272466;28;20063;-72
2021/04/06 11:24:29;;;;;;;6.57;1.50;;;;;;;2.69;87.43;100529.34;6273047;28;20056;-72
2021/04/06 11:27:30;;;;;;;8.65;2.30;;;;;;;2.59;88.66;100540.84;6272696;28;20088;-72
2021/04/06 11:30:33;;;;;;;11.18;1.58;;;;;;;2.14;86.95;100553.97;6272696;28;20081;-72
2021/04/06 11:33:34;;;;;;;4.82;1.52;;;;;;;1.75;88.87;100548.72;6272349;28;20053;-72
2021/04/06 11:36:36;;;;;;;8.00;2.13;;;;;;;1.75;91.76;100558.22;6272478;28;20075;-72
2021/04/06 11:39:40;;;;;;;6.15;1.52;;;;;;;1.80;89.04;100545.19;6272399;28;20045;-71
2021/04/06 11:42:41;;;;;;;4.43;1.70;;;;;;;1.72;89.35;100556.53;6271945;28;20521;-72
2021/04/06 11:45:42;;;;;;;5.90;1.77;;;;;;;1.98;90.27;100544.78;6272385;28;20083;-71
2021/04/06 11:48:44;;;;;;;4.60;1.50;;;;;;;1.86;92.91;100537.28;6272188;28;20135;-71
2021/04/06 11:51:46;;;;;;;5.65;1.70;;;;;;;1.65;93.84;100542.03;6271336;28;20123;-72
2021/04/06 11:54:47;;;;;;;6.43;1.40;;;;;;;1.65;92.51;100541.16;6271130;28;20045;-71
2021/04/06 11:57:48;;;;;;;5.78;1.02;;;;;;;1.77;90.91;100541.78;6271718;28;20045;-72
2021/04/06 12:00:49;;;;;;;3.40;0.98;;;;;;;2.32;89.64;100524.19;6270889;28;20132;-72
2021/04/06 12:03:50;;;;;;;12.80;2.03;;;;;;;2.86;87.92;100521.16;6272059;28;20045;-73
2021/04/06 12:06:52;;;;;;;9.93;1.20;;;;;;;3.00;86.34;100523.38;6271773;28;20052;-72
2021/04/06 12:09:53;;;;;;;5.82;1.77;;;;;;;3.29;83.33;100505.28;6271598;28;20060;-73
2021/04/06 12:12:54;;;;;;;17.45;1.73;;;;;;;3.00;81.18;100508.66;6271712;28;20470;-72
2021/04/06 12:15:54;;;;;;;6.50;1.70;;;;;;;2.98;84.96;100510.44;6270312;28;20124;-72
2021/04/06 12:18:55;;;;;;;8.82;1.40;;;;;;;2.52;84.40;100531.47;6270956;28;20047;-72
2021/04/06 12:21:57;;;;;;;7.90;1.35;;;;;;;2.29;83.19;100504.34;6271143;28;20049;-71
2021/04/06 12:24:58;;;;;;;13.35;1.38;;;;;;;2.34;82.78;100504.25;6271633;28;20053;-71
2021/04/06 12:27:59;;;;;;;4.35;1.48;;;;;;;2.37;82.08;100509.34;6271412;28;20053;-72
2021/04/06 12:31:00;;;;;;;2.55;0.80;;;;;;;2.14;82.83;100517.66;6271318;28;20477;-74
2021/04/06 12:34:01;;;;;;;2.60;0.88;;;;;;;1.94;83.83;100515.50;6271437;28;20505;-72
2021/04/06 12:37:02;;;;;;;10.50;1.00;;;;;;;2.14;84.44;100506.44;6271604;28;20139;-73
2021/04/06 12:40:07;;;;;;;7.95;1.63;;;;;;;2.63;85.55;100500.94;6271007;28;20582;-73
2021/04/06 12:43:08;;;;;;;5.95;1.10;;;;;;;3.12;79.41;100504.88;6270908;28;20493;-72
2021/04/06 12:46:09;;;;;;;6.47;1.42;;;;;;;3.13;80.21;100496.19;6271336;28;20052;-71
2021/04/06 12:49:10;;;;;;;8.77;1.45;;;;;;;3.42;79.10;100498.00;6271065;28;20041;-72
2021/04/06 12:52:12;;;;;;;8.40;1.38;;;;;;;3.42;80.32;100499.75;6270917;28;20045;-72
2021/04/06 12:55:14;;;;;;;9.82;1.85;;;;;;;3.17;82.71;100503.00;6271115;28;20051;-73
2021/04/06 12:58:15;;;;;;;3.45;1.13;;;;;;;3.12;80.96;100509.22;6271236;28;20114;-74
2021/04/06 13:01:16;;;;;;;12.23;1.52;;;;;;;2.96;81.34;100499.25;6270717;28;20049;-71
2021/04/06 13:04:17;;;;;;;4.95;1.10;;;;;;;2.84;82.95;100498.69;6273082;28;20057;-72
2021/04/06 13:07:19;;;;;;;6.32;1.40;;;;;;;3.00;82.52;100489.66;6276040;28;20052;-72
2021/04/06 13:10:22;;;;;;;9.20;1.33;;;;;;;3.24;82.44;100477.75;6275939;28;20048;-71
2021/04/06 13:13:24;;;;;;;7.50;1.40;;;;;;;3.02;81.91;100472.25;6275913;28;20048;-72
2021/04/06 13:16:26;;;;;;;3.28;1.15;;;;;;;3.42;82.94;100468.59;6275905;28;20427;-74
2021/04/06 13:19:27;;;;;;;8.77;1.10;;;;;;;3.43;80.60;100465.09;6275860;28;20406;-73
2021/04/06 13:22:28;;;;;;;5.30;1.42;;;;;;;3.61;83.57;100468.91;6275428;28;20425;-72
2021/04/06 13:25:30;;;;;;;3.50;0.98;;;;;;;3.71;78.71;100476.38;6275987;28;20056;-72
2021/04/06 13:28:32;;;;;;;7.43;1.20;;;;;;;3.60;80.21;100467.19;6276471;28;20048;-72
2021/04/06 13:31:33;;;;;;;5.55;1.02;;;;;;;4.11;79.81;100469.97;6275514;28;20523;-74
2021/04/06 13:34:34;;;;;;;6.50;2.00;;;;;;;4.19;74.61;100464.53;6275321;28;20106;-73
2021/04/06 13:37:36;;;;;;;5.25;1.20;;;;;;;4.48;74.11;100464.44;6275532;28;20550;-75
2021/04/06 13:40:37;;;;;;;10.25;1.67;;;;;;;4.56;72.89;100459.84;6274985;28;20048;-76
2021/04/06 13:43:38;;;;;;;8.75;1.35;;;;;;;4.69;71.13;100467.25;6272296;28;20107;-75
2021/04/06 13:46:39;;;;;;;5.28;1.08;;;;;;;4.27;72.46;100452.13;6272620;28;20053;-72
2021/04/06 13:49:40;;;;;;;6.57;1.10;;;;;;;4.13;73.16;100460.34;6258480;28;20132;-76
2021/04/06 13:52:42;;;;;;;8.25;1.40;;;;;;;4.20;72.03;100464.47;6272074;28;20493;-76
2021/04/06 13:55:43;;;;;;;14.07;1.58;;;;;;;4.04;72.69;100456.31;6269391;28;20060;-74
2021/04/06 13:58:44;;;;;;;6.97;1.10;;;;;;;3.72;75.36;100467.66;6274981;28;20061;-72
2021/04/06 14:01:45;;;;;;;10.02;1.35;;;;;;;3.66;79.32;100447.06;6336210;22;20047;-73
2021/04/06 14:04:46;;;;;;;6.28;1.30;;;;;;;4.18;74.03;100458.50;6322095;28;20416;-75
2021/04/06 14:07:48;;;;;;;8.50;1.35;;;;;;;4.57;70.33;100447.66;6323256;28;20052;-74